createdAt,value
2022-08-16T00:00:46.166Z,6.97
2022-08-16T00:04:47.773Z,6.90
2022-08-16T00:08:52.753Z,4.55
2022-08-16T00:12:55.176Z,6.30
2022-08-16T00:17:05.388Z,6.78
2022-08-16T00:21:18.199Z,5.03
2022-08-16T00:26:33.182Z,6.37
2022-08-16T00:29:43.590Z,7.13
2022-08-16T00:33:50.159Z,6.82
2022-08-16T00:37:58.007Z,8.02
2022-08-16T00:42:01.107Z,9.00
2022-08-16T00:46:32.960Z,5.85
2022-08-16T00:50:37.603Z,5.33
2022-08-16T00:54:41.732Z,6.10
2022-08-16T00:58:46.481Z,6.28
2022-08-16T01:02:48.956Z,6.68
2022-08-16T01:07:02.066Z,5.03
2022-08-16T01:11:06.569Z,8.63
2022-08-16T01:15:09.032Z,8.05
2022-08-16T01:19:40.947Z,5.65
2022-08-16T01:24:02.254Z,7.53
2022-08-16T01:28:08.291Z,5.72
2022-08-16T01:32:10.347Z,7.25
2022-08-16T01:36:13.077Z,8.68
2022-08-16T01:40:18.547Z,7.25
2022-08-16T01:44:20.424Z,6.72
2022-08-16T01:48:26.010Z,7.28
2022-08-16T01:52:30.543Z,6.68
2022-08-16T01:56:45.836Z,6.88
2022-08-16T02:00:50.930Z,6.45
2022-08-16T02:04:54.763Z,6.20
2022-08-16T02:08:59.424Z,7.45
2022-08-16T02:13:01.402Z,10.68
2022-08-16T02:17:08.260Z,6.40
2022-08-16T02:21:12.027Z,10.25
2022-08-16T02:25:17.898Z,6.53
2022-08-16T02:29:20.901Z,8.13
2022-08-16T02:33:24.686Z,8.82
2022-08-16T02:37:52.521Z,7.65
2022-08-16T02:41:56.278Z,6.90
2022-08-16T02:45:59.987Z,7.82
2022-08-16T02:50:54.919Z,9.50
2022-08-16T02:54:27.267Z,8.98
2022-08-16T02:58:29.523Z,8.77
2022-08-16T03:02:32.479Z,8.25
2022-08-16T03:06:42.788Z,8.48
2022-08-16T03:10:59.161Z,9.90
2022-08-16T03:15:01.169Z,7.93
2022-08-16T03:19:04.918Z,8.82
2022-08-16T03:23:08.998Z,8.70
2022-08-16T03:27:10.862Z,9.15
2022-08-16T03:31:13.038Z,10.02
2022-08-16T03:35:19.062Z,7.63
2022-08-16T03:39:21.082Z,8.95
2022-08-16T03:43:24.395Z,8.85
2022-08-16T03:47:50.845Z,9.40
2022-08-16T03:52:00.223Z,8.63
2022-08-16T03:56:07.997Z,8.82
2022-08-16T04:00:36.314Z,11.77
2022-08-16T04:04:49.145Z,9.32
2022-08-16T04:08:52.759Z,10.25
2022-08-16T04:13:00.585Z,10.23
2022-08-16T04:17:05.657Z,8.65
2022-08-16T04:21:11.458Z,9.45
2022-08-16T04:25:13.396Z,8.30
2022-08-16T04:29:21.736Z,9.60
2022-08-16T04:33:27.678Z,9.05
2022-08-16T04:37:32.573Z,14.18
2022-08-16T04:41:57.079Z,9.82
2022-08-16T04:46:03.197Z,10.93
2022-08-16T04:50:14.757Z,8.65
2022-08-16T04:54:32.502Z,11.48
2022-08-16T04:58:45.192Z,13.27
2022-08-16T05:02:56.410Z,13.68
2022-08-16T05:07:00.993Z,10.25
2022-08-16T05:11:22.959Z,9.00
2022-08-16T05:15:25.880Z,9.50
2022-08-16T05:23:55.952Z,10.00
2022-08-16T05:28:03.792Z,11.60
2022-08-16T05:36:34.140Z,11.23
2022-08-16T05:40:39.372Z,10.20
2022-08-16T05:44:41.200Z,10.35
2022-08-16T05:48:54.642Z,10.27
2022-08-16T05:52:57.203Z,10.25
2022-08-16T05:57:00.201Z,13.18
2022-08-16T06:01:04.073Z,9.68
2022-08-16T06:05:10.784Z,11.70
2022-08-16T06:13:17.014Z,13.32
2022-08-16T06:17:21.621Z,13.98
2022-08-16T06:21:25.001Z,13.43
2022-08-16T06:25:35.869Z,13.32
2022-08-16T06:29:39.143Z,13.63
2022-08-16T06:33:42.417Z,14.53
2022-08-16T06:37:51.290Z,15.73
2022-08-16T06:41:54.814Z,10.45
2022-08-16T06:46:37.556Z,13.88
2022-08-16T06:50:47.911Z,28.45
2022-08-16T06:54:50.394Z,18.00
2022-08-16T06:58:54.335Z,14.32
2022-08-16T07:03:00.303Z,17.25
2022-08-16T07:07:05.977Z,13.13
2022-08-16T07:11:09.195Z,12.80
2022-08-16T07:15:17.125Z,13.25
2022-08-16T07:19:21.117Z,13.65
2022-08-16T07:23:34.960Z,14.10
2022-08-16T07:27:41.848Z,11.40
2022-08-16T07:31:46.814Z,27.30
2022-08-16T07:35:52.712Z,16.88
2022-08-16T07:39:55.127Z,14.32
2022-08-16T07:43:57.563Z,17.38
2022-08-16T07:48:11.746Z,13.63
2022-08-16T07:52:18.951Z,14.93
2022-08-16T07:56:23.504Z,16.80
2022-08-16T08:00:36.703Z,15.10
2022-08-16T08:04:40.493Z,21.88
2022-08-16T08:08:50.145Z,13.95
2022-08-16T08:12:55.197Z,10.88
2022-08-16T08:17:01.932Z,14.70
2022-08-16T08:21:09.462Z,11.82
2022-08-16T08:25:13.042Z,13.65
2022-08-16T08:29:23.106Z,12.65
2022-08-16T08:33:41.563Z,14.57
2022-08-16T08:37:55.259Z,10.13
2022-08-16T08:42:03.564Z,10.93
2022-08-16T08:46:06.335Z,12.07
2022-08-16T08:50:31.551Z,15.60
2022-08-16T08:54:34.935Z,12.75
2022-08-16T08:58:40.441Z,8.82
2022-08-16T09:03:17.309Z,8.10
2022-08-16T09:07:23.725Z,15.13
2022-08-16T09:11:40.806Z,8.48
2022-08-16T09:15:44.757Z,8.98
2022-08-16T09:19:47.173Z,9.97
2022-08-16T09:23:50.387Z,7.57
2022-08-16T09:27:58.100Z,10.65
2022-08-16T09:32:07.619Z,8.35
2022-08-16T09:36:12.230Z,9.60
2022-08-16T09:40:42.505Z,13.18
2022-08-16T09:49:06.199Z,11.70
2022-08-16T09:53:23.031Z,28.00
2022-08-16T09:57:24.626Z,10.07
2022-08-16T10:01:38.549Z,9.40
2022-08-16T10:05:46.267Z,10.75
2022-08-16T10:09:55.562Z,11.27
2022-08-16T10:13:57.984Z,9.18
2022-08-16T10:18:02.482Z,8.77
2022-08-16T10:27:16.245Z,7.53
2022-08-16T10:30:47.360Z,10.40
2022-08-16T10:34:59.071Z,9.13
2022-08-16T10:39:00.744Z,7.88
2022-08-16T10:43:02.489Z,8.38
2022-08-16T10:47:05.936Z,13.88
2022-08-16T10:51:09.309Z,9.93
2022-08-16T10:59:44.916Z,6.85
2022-08-16T11:03:57.330Z,9.38
2022-08-16T11:07:59.398Z,12.50
2022-08-16T11:12:14.405Z,12.73
2022-08-16T11:20:42.000Z,9.57
2022-08-16T11:24:44.939Z,14.23
2022-08-16T11:33:10.856Z,6.93
2022-08-16T11:37:27.276Z,9.00
2022-08-16T11:41:35.829Z,7.57
2022-08-16T11:45:38.497Z,8.88
2022-08-16T11:49:40.222Z,17.20
2022-08-16T11:53:41.907Z,6.68
2022-08-16T11:57:43.639Z,7.53
2022-08-16T12:01:58.911Z,6.78
2022-08-16T12:06:08.125Z,7.45
2022-08-16T12:10:16.251Z,7.80
2022-08-16T12:14:17.930Z,7.80
2022-08-16T12:18:20.925Z,7.47
2022-08-16T12:22:24.884Z,8.25
2022-08-16T12:26:26.541Z,8.10
2022-08-16T12:34:50.480Z,7.37
2022-08-16T12:38:55.273Z,7.30
2022-08-16T12:43:01.025Z,7.60
2022-08-16T12:47:22.766Z,8.80
2022-08-16T12:51:57.562Z,6.72
2022-08-16T12:55:53.975Z,6.38
2022-08-16T12:59:55.551Z,8.45
2022-08-16T13:04:19.451Z,7.13
2022-08-16T13:08:21.238Z,9.65
2022-08-16T13:12:25.210Z,5.63
2022-08-16T13:16:27.327Z,5.45
2022-08-16T13:20:31.727Z,5.43
2022-08-16T13:24:33.834Z,4.65
2022-08-16T13:28:37.076Z,5.88
2022-08-16T13:32:40.539Z,4.85
2022-08-16T13:36:49.560Z,5.97
2022-08-16T13:40:57.175Z,5.20
2022-08-16T13:44:59.145Z,5.07
2022-08-16T13:49:01.172Z,4.75
2022-08-16T13:53:04.017Z,7.32
2022-08-16T13:57:06.693Z,5.63
2022-08-16T14:01:13.647Z,5.35
2022-08-16T14:05:21.885Z,4.78
2022-08-16T14:09:28.143Z,5.50
2022-08-16T14:13:30.115Z,4.57
2022-08-16T14:18:14.992Z,3.67
2022-08-16T14:22:14.320Z,5.15
2022-08-16T14:26:21.304Z,4.15
2022-08-16T14:30:23.846Z,4.88
2022-08-16T14:34:29.125Z,5.88
2022-08-16T14:38:37.592Z,6.55
2022-08-16T14:42:44.039Z,7.47
2022-08-16T14:46:45.857Z,4.43
2022-08-16T14:50:47.465Z,5.55
2022-08-16T14:54:53.382Z,6.35
2022-08-16T14:58:55.695Z,5.18
2022-08-16T15:07:00.166Z,4.97
2022-08-16T15:11:01.733Z,5.90
2022-08-16T15:15:12.570Z,4.13
2022-08-16T15:19:18.921Z,6.47
2022-08-16T15:23:24.103Z,5.55
2022-08-16T15:27:35.580Z,4.38
2022-08-16T15:31:37.656Z,6.70
2022-08-16T15:35:40.115Z,5.70
2022-08-16T15:39:42.167Z,4.28
2022-08-16T15:43:50.174Z,6.03
2022-08-16T15:48:08.797Z,5.47
2022-08-16T15:52:20.560Z,5.20
2022-08-16T15:56:23.581Z,5.28
2022-08-16T16:00:30.469Z,5.03
2022-08-16T16:04:34.220Z,4.80
2022-08-16T16:08:39.035Z,4.47
2022-08-16T16:12:53.086Z,8.57
2022-08-16T16:16:56.492Z,4.15
2022-08-16T16:21:01.861Z,6.75
2022-08-16T16:25:04.192Z,4.55
2022-08-16T16:29:14.360Z,5.63
2022-08-16T16:33:20.819Z,6.47
2022-08-16T16:37:23.473Z,5.07
2022-08-16T16:41:28.236Z,4.97
2022-08-16T16:45:33.556Z,4.15
2022-08-16T16:49:41.606Z,5.13
2022-08-16T16:53:56.244Z,5.75
2022-08-16T16:58:17.968Z,5.80
2022-08-16T17:02:41.507Z,6.82
2022-08-16T17:06:53.685Z,4.72
2022-08-16T17:10:59.803Z,5.18
2022-08-16T17:15:01.956Z,6.30
2022-08-16T17:19:17.468Z,5.85
2022-08-16T17:23:57.647Z,6.95
2022-08-16T17:27:50.861Z,6.73
2022-08-16T17:31:53.195Z,5.50
2022-08-16T17:35:56.087Z,5.03
2022-08-16T17:40:04.198Z,16.27
2022-08-16T17:44:12.506Z,5.05
2022-08-16T17:48:14.296Z,4.95
2022-08-16T17:52:17.426Z,5.07
2022-08-16T17:56:21.151Z,5.35
2022-08-16T18:00:24.017Z,7.00
2022-08-16T18:04:48.914Z,4.25
2022-08-16T18:08:50.084Z,4.35
2022-08-16T18:12:55.967Z,9.60
2022-08-16T18:16:57.629Z,11.05
2022-08-16T18:21:18.027Z,9.27
2022-08-16T18:25:20.864Z,4.55
2022-08-16T18:29:22.795Z,10.32
2022-08-16T18:33:26.394Z,4.93
2022-08-16T18:37:27.968Z,5.03
2022-08-16T18:41:30.541Z,4.97
2022-08-16T18:45:35.813Z,4.65
2022-08-16T18:49:38.472Z,7.38
2022-08-16T18:53:40.029Z,6.23
2022-08-16T18:57:41.883Z,15.30
2022-08-16T19:01:43.805Z,5.03
2022-08-16T19:05:49.493Z,6.60
2022-08-16T19:09:51.044Z,6.40
2022-08-16T19:13:52.704Z,7.22
2022-08-16T19:17:56.129Z,6.13
2022-08-16T19:21:58.303Z,7.28
2022-08-16T19:26:06.638Z,5.50
2022-08-16T19:30:08.930Z,4.93
2022-08-16T19:34:11.197Z,6.78
2022-08-16T19:38:13.387Z,5.28
2022-08-16T19:46:18.149Z,8.27
2022-08-16T19:50:23.164Z,4.03
2022-08-16T19:54:40.265Z,6.38
2022-08-16T19:59:02.040Z,5.18
2022-08-16T20:03:11.117Z,5.22
2022-08-16T20:07:13.556Z,4.22
2022-08-16T20:11:15.306Z,5.53
2022-08-16T20:15:22.343Z,5.60
2022-08-16T20:19:37.027Z,5.68
2022-08-16T20:23:41.819Z,8.00
2022-08-16T20:27:43.733Z,6.72
2022-08-16T20:31:45.533Z,7.50
2022-08-16T20:35:50.101Z,5.73
2022-08-16T20:39:53.532Z,5.60
2022-08-16T20:44:15.211Z,5.80
2022-08-16T20:48:17.079Z,7.60
2022-08-16T20:52:20.111Z,6.20
2022-08-16T20:56:21.829Z,5.70
2022-08-16T21:00:23.482Z,7.03
2022-08-16T21:04:27.768Z,4.78
2022-08-16T21:08:53.142Z,5.95
2022-08-16T21:12:55.408Z,5.05
2022-08-16T21:16:57.016Z,6.28
2022-08-16T21:20:58.634Z,8.13
2022-08-16T21:25:03.675Z,4.40
2022-08-16T21:29:11.165Z,5.65
2022-08-16T21:33:18.973Z,3.75
2022-08-16T21:37:20.624Z,6.30
2022-08-16T21:41:22.229Z,5.43
2022-08-16T21:45:23.835Z,4.22
2022-08-16T21:49:25.572Z,4.28
2022-08-16T21:53:27.536Z,3.83
2022-08-16T21:57:35.486Z,4.30
2022-08-16T22:01:44.491Z,5.43
2022-08-16T22:06:00.139Z,5.80
2022-08-16T22:11:04.857Z,6.13
2022-08-16T22:14:32.060Z,5.10
2022-08-16T22:18:33.658Z,4.75
2022-08-16T22:22:36.648Z,5.60
2022-08-16T22:26:43.047Z,6.93
2022-08-16T22:30:45.611Z,6.32
2022-08-16T22:34:47.171Z,5.57
2022-08-16T22:38:53.804Z,4.97
2022-08-16T22:42:58.514Z,4.40
2022-08-16T22:47:00.147Z,5.97
2022-08-16T22:51:01.699Z,6.03
2022-08-16T22:55:03.741Z,5.50
2022-08-16T22:59:05.349Z,6.20
2022-08-16T23:03:20.484Z,4.70
2022-08-16T23:07:22.148Z,4.50
2022-08-16T23:11:25.033Z,7.13
2022-08-16T23:15:29.057Z,5.60
2022-08-16T23:19:34.102Z,7.13
2022-08-16T23:23:36.839Z,5.40
2022-08-16T23:27:38.768Z,6.35
2022-08-16T23:31:40.346Z,5.17
2022-08-16T23:35:47.683Z,4.57
2022-08-16T23:39:49.300Z,6.10
2022-08-16T23:43:56.199Z,7.13
2022-08-16T23:47:57.828Z,7.65
2022-08-16T23:52:07.639Z,4.85
2022-08-16T23:56:18.484Z,6.75
